Thursday, August 16, 2018, 1:55 AM EDT
Back to Local

KCXY, Harrisburg Capital City

Location: New Cumberland, PA, United States Lat: 40.217
Local Time: 1:55 AM EDT ( 5:55 GMT) Lon: -76.85
Time Zone: US/Eastern Elev: 347 ft

Show me the last for .
Show Decoded

2018-08-16 00:56 METAR KCXY 160456Z AUTO 29003KT 9SM CLR 25/19 A3005 RMK AO2 SLP175 T02500194
                 403280217 =
2018-08-15 23:56 METAR KCXY 160356Z AUTO 29003KT 9SM CLR 26/19 A3004 RMK AO2 SLP172 T02610194 =
2018-08-15 22:56 METAR KCXY 160256Z AUTO 26007KT 9SM CLR 27/19 A3004 RMK AO2 SLP170 T02670194
                 51017 =
2018-08-15 21:56 METAR KCXY 160156Z AUTO 26007KT 9SM CLR 27/19 A3003 RMK AO2 SLP167 T02720194 =
2018-08-15 20:56 METAR KCXY 160056Z 27005KT 9SM CLR 27/19 A3001 RMK AO2 SLP159 T02720194 =
2018-08-15 19:56 METAR KCXY 152356Z 26004KT 8SM CLR 29/20 A2999 RMK AO2 SLP153 T02890200 10328
                 20289 53002 =
2018-08-15 18:56 METAR KCXY 152256Z 24006KT 9SM CLR 31/19 A2998 RMK AO2 SLP149 T03060194 =
2018-08-15 17:56 METAR KCXY 152156Z 24009KT 9SM CLR 32/19 A2998 RMK AO2 SLP149 T03220189 =
2018-08-15 16:56 METAR KCXY 152056Z 30007KT 10SM FEW055 33/17 A2998 RMK AO2 SLP151 T03280172
                 55003 =
2018-08-15 15:56 METAR KCXY 151956Z VRB06KT 10SM CLR 33/18 A2998 RMK AO2 SLP150 T03280178 =
2018-08-15 14:56 METAR KCXY 151856Z 28009KT 10SM FEW050 32/18 A2999 RMK AO2 SLP153 T03220178 =
2018-08-15 13:56 METAR KCXY 151756Z 28010KT 10SM FEW065 32/17 A2999 RMK AO2 SLP154 T03220172
                 10322 20233 58004 =
2018-08-15 12:56 METAR KCXY 151656Z 30011G15KT 10SM FEW038 BKN220 32/19 A3000 RMK AO2 SLP156
                 T03170189 =
2018-08-15 11:56 METAR KCXY 151556Z 29008G16KT 10SM CLR 31/18 A3000 RMK AO2 SLP157 T03060183 =
2018-08-15 10:56 METAR KCXY 151456Z 28007KT 10SM CLR 29/19 A3000 RMK AO2 SLP158 T02940194 51007 =
2018-08-15 09:56 METAR KCXY 151356Z 25006KT 10SM CLR 27/19 A3000 RMK AO2 SLP157 T02720189 =
2018-08-15 08:56 METAR KCXY 151256Z 27005KT 10SM CLR 26/18 A2999 RMK AO2 SLP154 T02560183 =
2018-08-15 07:56 METAR KCXY 151156Z 28005KT 9SM CLR 23/18 A2998 RMK AO2 SLP150 T02330183 10233
                 20217 51013 =
2018-08-15 06:56 METAR KCXY 151056Z 31003KT 10SM CLR 22/18 A2997 RMK AO2 SLP149 T02170178 =
2018-08-15 05:56 METAR KCXY 150956Z AUTO 30004KT 10SM CLR 22/18 A2996 RMK AO2 SLP142 T02170178 =
2018-08-15 04:56 METAR KCXY 150856Z AUTO 27005KT 10SM CLR 22/18 A2994 RMK AO2 SLP137 T02170178
                 53001 =
2018-08-15 03:56 METAR KCXY 150756Z AUTO 29004KT 10SM CLR 22/18 A2993 RMK AO2 SLP135 T02220178 =
2018-08-15 02:56 METAR KCXY 150656Z AUTO 29006KT 10SM CLR 23/18 A2994 RMK AO2 SLP135 T02280178 =
2018-08-15 01:56 METAR KCXY 150556Z AUTO 28008KT 10SM CLR 23/18 A2994 RMK AO2 SLP136 T02280178
                 10244 20228 50002 =

Support USWX by starting your Amazon purchase here.